createdAt,value
2023-04-02T00:00:21.739Z,11.3
2023-04-02T00:00:51.738Z,11.31
2023-04-02T00:01:21.742Z,11.32
2023-04-02T00:01:51.763Z,11.33
2023-04-02T00:02:21.783Z,11.3
2023-04-02T00:02:51.812Z,11.28
2023-04-02T00:03:21.787Z,11.26
2023-04-02T00:03:51.767Z,11.25
2023-04-02T00:04:21.733Z,11.22
2023-04-02T00:04:51.735Z,11.2
2023-04-02T00:05:21.745Z,11.21
2023-04-02T00:05:51.754Z,11.29
2023-04-02T00:06:21.743Z,11.36
2023-04-02T00:06:51.745Z,11.43
2023-04-02T00:07:21.736Z,11.46
2023-04-02T00:07:51.736Z,11.5
2023-04-02T00:08:21.741Z,11.57
2023-04-02T00:08:51.736Z,11.65
2023-04-02T00:09:21.745Z,11.69
2023-04-02T00:09:51.741Z,11.71
2023-04-02T00:10:21.740Z,11.74
2023-04-02T00:10:51.758Z,11.69
2023-04-02T00:11:21.740Z,11.64
2023-04-02T00:11:51.741Z,11.58
2023-04-02T00:12:21.737Z,11.51
2023-04-02T00:12:51.737Z,11.49
2023-04-02T00:13:21.742Z,11.49
2023-04-02T00:13:51.742Z,11.53
2023-04-02T00:14:21.748Z,11.59
2023-04-02T00:14:51.756Z,11.64
2023-04-02T00:15:21.738Z,11.68
2023-04-02T00:15:51.747Z,11.71
2023-04-02T00:16:21.773Z,11.74
2023-04-02T00:16:51.811Z,11.79
2023-04-02T00:17:21.753Z,11.83
2023-04-02T00:17:51.757Z,11.85
2023-04-02T00:18:21.768Z,11.84
2023-04-02T00:18:51.745Z,11.79
2023-04-02T00:19:21.743Z,11.77
2023-04-02T00:19:51.768Z,11.76
2023-04-02T00:20:21.755Z,11.76
2023-04-02T00:20:51.741Z,11.77
2023-04-02T00:21:21.740Z,11.78
2023-04-02T00:21:51.738Z,11.79
2023-04-02T00:22:21.740Z,11.78
2023-04-02T00:22:51.758Z,11.75
2023-04-02T00:23:21.744Z,11.71
2023-04-02T00:23:51.740Z,11.63
2023-04-02T00:24:21.751Z,11.57
2023-04-02T00:24:51.752Z,11.5
2023-04-02T00:25:21.746Z,11.43
2023-04-02T00:25:51.748Z,11.4
2023-04-02T00:26:21.753Z,11.41
2023-04-02T00:26:51.741Z,11.42
2023-04-02T00:27:21.739Z,11.44
2023-04-02T00:27:51.743Z,11.42
2023-04-02T00:28:21.751Z,11.43
2023-04-02T00:28:51.742Z,11.41
2023-04-02T00:29:21.753Z,11.42
2023-04-02T00:29:51.751Z,11.43
2023-04-02T00:30:21.748Z,11.42
2023-04-02T00:30:51.745Z,11.44
2023-04-02T00:31:21.742Z,11.47
2023-04-02T00:31:51.769Z,11.46
2023-04-02T00:32:21.842Z,11.47
2023-04-02T00:32:51.799Z,11.53
2023-04-02T00:33:21.746Z,11.58
2023-04-02T00:33:51.746Z,11.65
2023-04-02T00:34:21.741Z,11.72
2023-04-02T00:34:51.750Z,11.79
2023-04-02T00:35:21.740Z,11.84
2023-04-02T00:35:51.792Z,11.89
2023-04-02T00:36:21.776Z,11.94
2023-04-02T00:36:51.748Z,11.98
2023-04-02T00:37:21.749Z,11.98
2023-04-02T00:37:51.758Z,11.93
2023-04-02T00:38:21.747Z,11.83
2023-04-02T00:38:51.749Z,11.76
2023-04-02T00:39:21.756Z,11.7
2023-04-02T00:39:51.745Z,11.62
2023-04-02T00:40:21.744Z,11.57
2023-04-02T00:40:51.749Z,11.57
2023-04-02T00:41:21.746Z,11.59
2023-04-02T00:41:51.745Z,11.59
2023-04-02T00:42:21.744Z,11.63
2023-04-02T00:42:51.758Z,11.67
2023-04-02T00:43:21.743Z,11.71
2023-04-02T00:43:51.745Z,11.76
2023-04-02T00:44:22.059Z,11.8
2023-04-02T00:44:51.745Z,11.85
2023-04-02T00:45:21.751Z,11.86
2023-04-02T00:45:51.756Z,11.85
2023-04-02T00:46:21.802Z,11.83
2023-04-02T00:46:51.752Z,11.76
2023-04-02T00:47:21.750Z,11.69
2023-04-02T00:47:51.774Z,11.64
2023-04-02T00:48:21.748Z,11.61
2023-04-02T00:48:51.749Z,11.57
2023-04-02T00:49:21.747Z,11.52
2023-04-02T00:49:51.750Z,11.52
2023-04-02T00:50:21.749Z,11.53
2023-04-02T00:50:51.745Z,11.51
2023-04-02T00:51:21.749Z,11.49
2023-04-02T00:51:51.752Z,11.5
2023-04-02T00:52:21.747Z,11.53
2023-04-02T00:52:51.748Z,11.56
2023-04-02T00:53:21.759Z,11.59
2023-04-02T00:53:51.750Z,11.62
2023-04-02T00:54:21.748Z,11.62
2023-04-02T00:54:51.747Z,11.62
2023-04-02T00:55:21.756Z,11.62
2023-04-02T00:55:51.749Z,11.64
2023-04-02T00:56:21.748Z,11.66
2023-04-02T00:56:51.789Z,11.65
2023-04-02T00:57:21.792Z,11.66
2023-04-02T00:57:51.752Z,11.66
2023-04-02T00:58:21.754Z,11.67
2023-04-02T00:58:51.760Z,11.67
2023-04-02T00:59:21.756Z,11.67
2023-04-02T00:59:51.752Z,11.66
2023-04-02T01:00:21.761Z,11.65
2023-04-02T01:00:51.761Z,11.64
2023-04-02T01:01:21.857Z,11.63
2023-04-02T01:01:51.823Z,11.6
2023-04-02T01:02:21.765Z,11.56
2023-04-02T01:02:51.861Z,11.53
2023-04-02T01:03:21.803Z,11.5
2023-04-02T01:03:51.791Z,11.48
2023-04-02T01:04:21.748Z,11.44
2023-04-02T01:04:51.747Z,11.39
2023-04-02T01:05:21.750Z,11.34
2023-04-02T01:05:51.760Z,11.26
2023-04-02T01:06:21.747Z,11.16
2023-04-02T01:06:51.757Z,11.05
2023-04-02T01:07:21.757Z,10.94
2023-04-02T01:07:51.754Z,10.85
2023-04-02T01:08:21.754Z,10.72
2023-04-02T01:08:51.753Z,10.54
2023-04-02T01:09:21.746Z,10.37
2023-04-02T01:09:51.750Z,10.23
2023-04-02T01:10:21.752Z,10.13
2023-04-02T01:10:51.748Z,10.07
2023-04-02T01:11:21.748Z,10.01
2023-04-02T01:11:51.752Z,9.97
2023-04-02T01:12:21.756Z,10
2023-04-02T01:12:51.752Z,10.05
2023-04-02T01:13:21.745Z,10.04
2023-04-02T01:13:51.748Z,9.99
2023-04-02T01:14:21.813Z,9.95
2023-04-02T01:14:51.754Z,9.93
2023-04-02T01:15:21.788Z,9.95
2023-04-02T01:15:51.774Z,9.97
2023-04-02T01:16:21.800Z,9.99
2023-04-02T01:16:51.755Z,10.02
2023-04-02T01:17:21.749Z,10.04
2023-04-02T01:17:51.789Z,10.04
2023-04-02T01:18:21.748Z,10.04
2023-04-02T01:18:51.752Z,10.04
2023-04-02T01:19:21.788Z,10.05
2023-04-02T01:19:51.751Z,10.03
2023-04-02T01:20:21.746Z,9.98
2023-04-02T01:20:51.747Z,9.91
2023-04-02T01:21:21.754Z,9.85
2023-04-02T01:21:51.755Z,9.8
2023-04-02T01:22:21.749Z,9.78
2023-04-02T01:22:51.750Z,9.75
2023-04-02T01:23:21.754Z,9.76
2023-04-02T01:23:51.749Z,9.78
2023-04-02T01:24:21.750Z,9.83
2023-04-02T01:24:51.759Z,9.88
2023-04-02T01:25:21.758Z,9.94
2023-04-02T01:25:51.750Z,9.99
2023-04-02T01:26:21.753Z,10.04
2023-04-02T01:26:51.757Z,10.09
2023-04-02T01:27:21.750Z,10.12
2023-04-02T01:27:51.751Z,10.11
2023-04-02T01:28:21.750Z,10.06
2023-04-02T01:28:51.760Z,10.01
2023-04-02T01:29:21.756Z,9.98
2023-04-02T01:29:51.763Z,9.97
2023-04-02T01:30:21.752Z,9.98
2023-04-02T01:30:51.750Z,9.96
2023-04-02T01:31:21.774Z,9.95
2023-04-02T01:31:51.895Z,9.95
2023-04-02T01:32:21.762Z,9.98
2023-04-02T01:32:51.801Z,9.99
2023-04-02T01:33:21.748Z,10
2023-04-02T01:33:51.748Z,9.99
2023-04-02T01:34:21.945Z,9.98
2023-04-02T01:34:51.752Z,10.01
2023-04-02T01:35:21.751Z,10.06
2023-04-02T01:35:51.800Z,10.11
2023-04-02T01:36:21.796Z,10.16
2023-04-02T01:36:51.749Z,10.18
2023-04-02T01:37:21.747Z,10.14
2023-04-02T01:37:51.746Z,10.1
2023-04-02T01:38:21.752Z,10.07
2023-04-02T01:38:51.765Z,10.07
2023-04-02T01:39:21.747Z,10.07
2023-04-02T01:39:51.759Z,10.08
2023-04-02T01:40:21.749Z,10.1
2023-04-02T01:40:51.752Z,10.11
2023-04-02T01:41:21.745Z,10.12
2023-04-02T01:41:51.748Z,10.13
2023-04-02T01:42:21.753Z,10.16
2023-04-02T01:42:51.759Z,10.18
2023-04-02T01:43:21.770Z,10.16
2023-04-02T01:43:51.759Z,10.1
2023-04-02T01:44:21.746Z,10.03
2023-04-02T01:44:51.747Z,10
2023-04-02T01:45:21.789Z,9.99
2023-04-02T01:45:51.751Z,10
2023-04-02T01:46:21.787Z,10.02
2023-04-02T01:46:51.800Z,10.06
2023-04-02T01:47:21.747Z,10.09
2023-04-02T01:47:51.768Z,10.04
2023-04-02T01:48:21.753Z,10.05
2023-04-02T01:48:51.747Z,10.05
2023-04-02T01:49:21.753Z,10.07
2023-04-02T01:49:51.750Z,10.07
2023-04-02T01:50:21.748Z,10.08
2023-04-02T01:50:51.747Z,10.1
2023-04-02T01:51:21.748Z,10.12
2023-04-02T01:51:51.746Z,10.13
2023-04-02T01:52:21.748Z,10.16
2023-04-02T01:52:51.744Z,10.18
2023-04-02T01:53:21.750Z,10.21
2023-04-02T01:53:51.755Z,10.24
2023-04-02T01:54:21.750Z,10.25
2023-04-02T01:54:51.751Z,10.27
2023-04-02T01:55:21.755Z,10.27
2023-04-02T01:55:51.752Z,10.28
2023-04-02T01:56:21.748Z,10.28
2023-04-02T01:56:51.790Z,10.28
2023-04-02T01:57:21.809Z,10.28
2023-04-02T01:57:51.749Z,10.28
2023-04-02T01:58:21.752Z,10.26
2023-04-02T01:58:51.749Z,10.22
2023-04-02T01:59:21.749Z,10.17
2023-04-02T01:59:51.752Z,10.14
2023-04-02T02:00:21.752Z,10.12
2023-04-02T02:00:51.821Z,10.1
2023-04-02T02:01:21.817Z,10.09
2023-04-02T02:01:51.792Z,10.11
2023-04-02T02:02:21.821Z,10.14
2023-04-02T02:02:51.782Z,10.14
2023-04-02T02:03:21.893Z,10.16
2023-04-02T02:03:51.754Z,10.17
2023-04-02T02:04:21.763Z,10.16
2023-04-02T02:04:51.750Z,10.18
2023-04-02T02:05:21.749Z,10.2
2023-04-02T02:05:51.763Z,10.23
2023-04-02T02:06:21.749Z,10.26
2023-04-02T02:06:51.748Z,10.29
2023-04-02T02:07:21.754Z,10.33
2023-04-02T02:07:51.749Z,10.32
2023-04-02T02:08:21.752Z,10.27
2023-04-02T02:08:51.751Z,10.25
2023-04-02T02:09:21.750Z,10.26
2023-04-02T02:09:51.754Z,10.28
2023-04-02T02:10:21.770Z,10.22
2023-04-02T02:10:51.749Z,10.13
2023-04-02T02:11:21.749Z,10.04
2023-04-02T02:11:51.758Z,9.97
2023-04-02T02:12:21.763Z,9.94
2023-04-02T02:12:51.752Z,9.93
2023-04-02T02:13:21.755Z,9.96
2023-04-02T02:13:51.785Z,9.97
2023-04-02T02:14:21.763Z,9.97
2023-04-02T02:14:51.763Z,9.94
2023-04-02T02:15:21.762Z,9.89
2023-04-02T02:15:51.756Z,9.9
2023-04-02T02:16:21.879Z,9.91
2023-04-02T02:16:51.757Z,9.91
2023-04-02T02:17:21.774Z,9.86
2023-04-02T02:17:51.795Z,9.82
2023-04-02T02:18:21.759Z,9.82
2023-04-02T02:18:51.763Z,9.86
2023-04-02T02:19:21.788Z,9.9
2023-04-02T02:19:51.786Z,9.97
2023-04-02T02:20:21.758Z,10.05
2023-04-02T02:20:51.758Z,10.13
2023-04-02T02:21:21.756Z,10.19
2023-04-02T02:21:51.756Z,10.25
2023-04-02T02:22:21.755Z,10.26
2023-04-02T02:22:51.764Z,10.24
2023-04-02T02:23:21.753Z,10.22
2023-04-02T02:23:51.757Z,10.22
2023-04-02T02:24:21.767Z,10.23
2023-04-02T02:24:51.759Z,10.26
2023-04-02T02:25:21.754Z,10.26
2023-04-02T02:25:51.793Z,10.24
2023-04-02T02:26:21.773Z,10.21
2023-04-02T02:26:51.754Z,10.15
2023-04-02T02:27:21.758Z,10.1
2023-04-02T02:27:51.768Z,10.1
2023-04-02T02:28:21.766Z,10.05
2023-04-02T02:28:51.758Z,10.01
2023-04-02T02:29:21.759Z,10.03
2023-04-02T02:29:51.767Z,10.02
2023-04-02T02:30:21.781Z,10.07
2023-04-02T02:30:51.767Z,10.11
2023-04-02T02:31:21.790Z,10.15
2023-04-02T02:31:51.765Z,10.17
2023-04-02T02:32:21.804Z,10.23
2023-04-02T02:32:51.814Z,10.31
2023-04-02T02:33:21.773Z,10.39
2023-04-02T02:33:51.800Z,10.41
2023-04-02T02:34:21.763Z,10.43
2023-04-02T02:34:51.760Z,10.43
2023-04-02T02:35:21.793Z,10.46
2023-04-02T02:35:51.778Z,10.45
2023-04-02T02:36:21.776Z,10.45
2023-04-02T02:36:51.757Z,10.43
2023-04-02T02:37:21.768Z,10.43
2023-04-02T02:37:51.759Z,10.38
2023-04-02T02:38:21.763Z,10.39
2023-04-02T02:38:53.182Z,10.38
2023-04-02T02:39:21.759Z,10.42
2023-04-02T02:39:51.764Z,10.45
2023-04-02T02:40:21.759Z,10.43
2023-04-02T02:40:51.763Z,10.46
2023-04-02T02:41:21.764Z,10.44
2023-04-02T02:41:51.763Z,10.43
2023-04-02T02:42:21.759Z,10.43
2023-04-02T02:42:51.771Z,10.42
2023-04-02T02:43:21.760Z,10.39
2023-04-02T02:43:51.767Z,10.36
2023-04-02T02:44:21.783Z,10.26
2023-04-02T02:44:51.775Z,10.26
2023-04-02T02:45:21.800Z,10.23
2023-04-02T02:45:51.775Z,10.23
2023-04-02T02:46:21.780Z,10.19
2023-04-02T02:46:51.759Z,10.22
2023-04-02T02:47:21.881Z,10.29
2023-04-02T02:47:51.804Z,10.38
2023-04-02T02:48:21.758Z,10.43
2023-04-02T02:48:51.757Z,10.49
2023-04-02T02:49:21.765Z,10.55
2023-04-02T02:49:51.757Z,10.57
2023-04-02T02:50:21.773Z,10.56
2023-04-02T02:50:51.766Z,10.6
2023-04-02T02:51:21.761Z,10.63
2023-04-02T02:51:51.760Z,10.6
2023-04-02T02:52:21.756Z,10.55
2023-04-02T02:52:51.762Z,10.55
2023-04-02T02:53:21.763Z,10.61
2023-04-02T02:53:51.763Z,10.69
2023-04-02T02:54:21.758Z,10.75
2023-04-02T02:54:51.774Z,10.83
2023-04-02T02:55:21.758Z,10.84
2023-04-02T02:55:51.768Z,10.86
2023-04-02T02:56:21.761Z,10.8
2023-04-02T02:56:51.772Z,10.76
2023-04-02T02:57:21.780Z,10.76
2023-04-02T02:57:51.767Z,10.73
2023-04-02T02:58:21.760Z,10.7
2023-04-02T02:58:51.767Z,10.69
2023-04-02T02:59:21.783Z,10.63
2023-04-02T02:59:51.780Z,10.59
2023-04-02T03:00:21.762Z,10.56
2023-04-02T03:00:51.765Z,10.54
2023-04-02T03:01:21.778Z,10.48
2023-04-02T03:01:51.758Z,10.43
2023-04-02T03:02:21.839Z,10.42
2023-04-02T03:02:51.846Z,10.42
2023-04-02T03:03:21.935Z,10.41
2023-04-02T03:03:51.917Z,10.4
2023-04-02T03:04:21.789Z,10.42
2023-04-02T03:04:51.760Z,10.43
2023-04-02T03:05:21.759Z,10.41
2023-04-02T03:05:51.762Z,10.42
2023-04-02T03:06:21.776Z,10.47
2023-04-02T03:06:51.761Z,10.55
2023-04-02T03:07:21.760Z,10.71
2023-04-02T03:07:51.761Z,10.85
2023-04-02T03:08:21.757Z,10.99
2023-04-02T03:08:51.764Z,11.12
2023-04-02T03:09:21.762Z,11.24
2023-04-02T03:09:51.771Z,11.32
2023-04-02T03:10:21.759Z,11.34
2023-04-02T03:10:51.762Z,11.36
2023-04-02T03:11:21.764Z,11.39
2023-04-02T03:11:51.760Z,11.46
2023-04-02T03:12:21.763Z,11.52
2023-04-02T03:12:51.791Z,11.64
2023-04-02T03:13:21.773Z,11.7
2023-04-02T03:13:51.764Z,11.69
2023-04-02T03:14:21.788Z,11.69
2023-04-02T03:14:51.758Z,11.71
2023-04-02T03:15:21.782Z,11.69
2023-04-02T03:15:51.833Z,11.64
2023-04-02T03:16:21.813Z,11.59
2023-04-02T03:16:51.760Z,11.53
2023-04-02T03:17:21.784Z,11.49
2023-04-02T03:17:51.806Z,11.53
2023-04-02T03:18:21.760Z,11.61
2023-04-02T03:18:51.758Z,11.68
2023-04-02T03:19:21.765Z,11.7
2023-04-02T03:19:51.762Z,11.73
2023-04-02T03:20:21.773Z,11.7
2023-04-02T03:20:51.769Z,11.69
2023-04-02T03:21:21.762Z,11.71
2023-04-02T03:21:51.762Z,11.79
2023-04-02T03:22:21.772Z,11.9
2023-04-02T03:22:51.761Z,11.97
2023-04-02T03:23:21.764Z,12.06
2023-04-02T03:23:51.770Z,12.14
2023-04-02T03:24:21.769Z,12.16
2023-04-02T03:24:51.765Z,12.12
2023-04-02T03:25:21.773Z,12.12
2023-04-02T03:25:51.766Z,12.11
2023-04-02T03:26:21.764Z,12.14
2023-04-02T03:26:51.770Z,12.09
2023-04-02T03:27:21.770Z,12.12
2023-04-02T03:27:51.769Z,12.18
2023-04-02T03:28:21.768Z,12.18
2023-04-02T03:28:51.771Z,12.17
2023-04-02T03:29:21.774Z,12.2
2023-04-02T03:29:51.774Z,12.27
2023-04-02T03:30:21.763Z,12.24
2023-04-02T03:30:51.809Z,12.24
2023-04-02T03:31:21.763Z,12.19
2023-04-02T03:31:51.772Z,12.15
2023-04-02T03:32:21.772Z,12.11
2023-04-02T03:32:51.779Z,12.08
2023-04-02T03:33:21.776Z,12.08
2023-04-02T03:33:51.775Z,12.03
2023-04-02T03:34:21.764Z,11.98
2023-04-02T03:34:51.764Z,11.99
2023-04-02T03:35:21.774Z,12.05
2023-04-02T03:35:51.835Z,12.11
2023-04-02T03:36:21.830Z,12.15
2023-04-02T03:36:51.766Z,12.19
2023-04-02T03:37:21.766Z,12.27
2023-04-02T03:37:51.772Z,12.35
2023-04-02T03:38:21.781Z,12.39
2023-04-02T03:38:51.770Z,12.47
2023-04-02T03:39:21.776Z,12.47
2023-04-02T03:39:51.772Z,12.42
2023-04-02T03:40:21.774Z,12.42
2023-04-02T03:40:51.771Z,12.46
2023-04-02T03:41:21.792Z,12.44
2023-04-02T03:41:51.779Z,12.35
2023-04-02T03:42:21.797Z,12.34
2023-04-02T03:42:51.787Z,12.36
2023-04-02T03:43:21.773Z,12.38
2023-04-02T03:43:51.773Z,12.4
2023-04-02T03:44:21.769Z,12.5
2023-04-02T03:44:51.767Z,12.59
2023-04-02T03:45:21.778Z,12.67
2023-04-02T03:45:51.768Z,12.77
2023-04-02T03:46:21.821Z,12.89
2023-04-02T03:46:51.848Z,13.04
2023-04-02T03:47:21.815Z,13.1
2023-04-02T03:47:51.839Z,13.13
2023-04-02T03:48:21.770Z,13.2
2023-04-02T03:48:51.804Z,13.21
2023-04-02T03:49:21.768Z,13.24
2023-04-02T03:49:51.771Z,13.25
2023-04-02T03:50:21.780Z,13.21
2023-04-02T03:50:51.771Z,13.13
2023-04-02T03:51:21.772Z,13.06
2023-04-02T03:51:51.783Z,13.05
2023-04-02T03:52:21.771Z,13
2023-04-02T03:52:51.770Z,12.88
2023-04-02T03:53:21.773Z,12.8
2023-04-02T03:53:51.769Z,12.82
2023-04-02T03:54:21.769Z,12.85
2023-04-02T03:54:53.110Z,12.97
2023-04-02T03:55:21.775Z,13.11
2023-04-02T03:55:51.780Z,13.33
2023-04-02T03:56:21.784Z,13.49
2023-04-02T03:56:51.778Z,13.57
2023-04-02T03:57:21.825Z,13.56
2023-04-02T03:57:51.772Z,13.61
2023-04-02T03:58:21.786Z,13.61
2023-04-02T03:58:51.769Z,13.58
2023-04-02T03:59:21.768Z,13.57
2023-04-02T03:59:51.772Z,13.57
2023-04-02T04:00:21.775Z,13.56
2023-04-02T04:00:51.772Z,13.56
2023-04-02T04:01:21.771Z,13.59
2023-04-02T04:01:51.869Z,13.62
2023-04-02T04:02:21.862Z,13.64
2023-04-02T04:02:51.813Z,13.7
2023-04-02T04:03:21.772Z,13.77
2023-04-02T04:03:51.791Z,13.91
2023-04-02T04:04:21.850Z,13.9
2023-04-02T04:04:51.772Z,13.95
2023-04-02T04:05:21.770Z,14.09
2023-04-02T04:05:51.777Z,14.22
2023-04-02T04:06:21.780Z,14.27
2023-04-02T04:06:51.770Z,14.28
2023-04-02T04:07:21.771Z,14.33
2023-04-02T04:07:51.778Z,14.26
2023-04-02T04:08:21.772Z,14.21
2023-04-02T04:08:51.792Z,14.12
2023-04-02T04:09:21.770Z,14.18
2023-04-02T04:09:51.775Z,14.28
2023-04-02T04:10:21.781Z,14.34
2023-04-02T04:10:51.824Z,14.4
2023-04-02T04:11:21.843Z,14.45
2023-04-02T04:11:51.774Z,14.49
2023-04-02T04:12:21.791Z,14.52
2023-04-02T04:12:51.877Z,14.51
2023-04-02T04:13:21.788Z,14.43
2023-04-02T04:13:51.803Z,14.41
2023-04-02T04:14:21.782Z,14.5
2023-04-02T04:14:51.770Z,14.66
2023-04-02T04:15:21.775Z,14.69
2023-04-02T04:15:51.770Z,14.75
2023-04-02T04:16:21.879Z,14.82
2023-04-02T04:16:51.921Z,14.8
2023-04-02T04:17:21.777Z,14.88
2023-04-02T04:17:51.844Z,14.91
2023-04-02T04:18:21.773Z,14.86
2023-04-02T04:18:51.782Z,14.78
2023-04-02T04:19:21.803Z,14.77
2023-04-02T04:19:51.783Z,14.82
2023-04-02T04:20:21.776Z,14.79
2023-04-02T04:20:51.804Z,14.77
2023-04-02T04:21:21.788Z,14.81
2023-04-02T04:21:51.773Z,14.72
2023-04-02T04:22:21.792Z,14.73
2023-04-02T04:22:51.777Z,14.84
2023-04-02T04:23:21.780Z,15
2023-04-02T04:23:51.783Z,15.2
2023-04-02T04:24:21.809Z,15.43
2023-04-02T04:24:51.794Z,15.55
2023-04-02T04:25:21.781Z,15.53
2023-04-02T04:25:51.779Z,15.57
2023-04-02T04:26:21.774Z,15.57
2023-04-02T04:26:51.777Z,15.51
2023-04-02T04:27:21.802Z,15.51
2023-04-02T04:27:51.785Z,15.42
2023-04-02T04:28:21.787Z,15.45
2023-04-02T04:28:51.806Z,15.53
2023-04-02T04:29:21.778Z,15.7
2023-04-02T04:29:51.784Z,15.88
2023-04-02T04:30:21.777Z,16.02
2023-04-02T04:30:51.787Z,16.11
2023-04-02T04:31:23.866Z,16.24
2023-04-02T04:31:52.757Z,16.38
2023-04-02T04:32:21.791Z,16.43
2023-04-02T04:32:51.885Z,16.46
2023-04-02T04:33:21.776Z,16.49
2023-04-02T04:33:51.780Z,16.34
2023-04-02T04:34:21.776Z,16.34
2023-04-02T04:34:51.789Z,16.42
2023-04-02T04:35:21.778Z,16.48
2023-04-02T04:35:51.815Z,16.34
2023-04-02T04:36:21.776Z,16.12
2023-04-02T04:36:51.835Z,16.06
2023-04-02T04:37:21.790Z,15.97
2023-04-02T04:37:51.779Z,15.88
2023-04-02T04:38:21.804Z,15.97
2023-04-02T04:38:51.778Z,16.17
2023-04-02T04:39:21.782Z,16.24
2023-04-02T04:39:51.778Z,16.41
2023-04-02T04:40:21.780Z,16.51
2023-04-02T04:40:51.778Z,16.44
2023-04-02T04:41:21.780Z,16.53
2023-04-02T04:41:51.784Z,16.76
2023-04-02T04:42:21.787Z,17.01
2023-04-02T04:42:51.796Z,17.14
2023-04-02T04:43:21.790Z,17.35
2023-04-02T04:43:51.780Z,17.57
2023-04-02T04:44:21.784Z,17.6
2023-04-02T04:44:51.791Z,17.68
2023-04-02T04:45:21.789Z,17.77
2023-04-02T04:45:51.893Z,17.82
2023-04-02T04:46:21.802Z,17.74
2023-04-02T04:46:51.783Z,17.73
2023-04-02T04:47:21.809Z,17.69
2023-04-02T04:47:51.841Z,17.61
2023-04-02T04:48:21.779Z,17.52
2023-04-02T04:48:51.782Z,17.46
2023-04-02T04:49:21.787Z,17.44
2023-04-02T04:49:51.786Z,17.42
2023-04-02T04:50:21.785Z,17.36
2023-04-02T04:50:51.791Z,17.27
2023-04-02T04:51:21.784Z,17.34
2023-04-02T04:51:51.793Z,17.58
2023-04-02T04:52:21.790Z,17.83
2023-04-02T04:52:51.785Z,18.13
2023-04-02T04:53:21.811Z,18.4
2023-04-02T04:53:51.788Z,18.59
2023-04-02T04:54:21.784Z,18.76
2023-04-02T04:54:51.783Z,19.02
2023-04-02T04:55:21.787Z,19.21
2023-04-02T04:55:51.796Z,19.38
2023-04-02T04:56:21.788Z,19.58
2023-04-02T04:56:51.807Z,19.62
2023-04-02T04:57:21.825Z,19.67
2023-04-02T04:57:51.786Z,19.79
2023-04-02T04:58:21.784Z,19.94
2023-04-02T04:58:51.790Z,19.87
2023-04-02T04:59:21.812Z,19.84
2023-04-02T04:59:51.784Z,19.8
2023-04-02T05:00:21.793Z,19.72
2023-04-02T05:00:51.787Z,19.63
2023-04-02T05:01:21.804Z,19.64
2023-04-02T05:01:51.860Z,19.58
2023-04-02T05:02:21.782Z,19.49
2023-04-02T05:02:51.833Z,19.33
2023-04-02T05:03:21.837Z,19.3
2023-04-02T05:03:51.786Z,19.24
2023-04-02T05:04:21.816Z,19
2023-04-02T05:04:51.853Z,18.86
2023-04-02T05:05:21.791Z,18.9
2023-04-02T05:05:51.791Z,18.86
2023-04-02T05:06:21.795Z,18.93
2023-04-02T05:06:51.785Z,18.97
2023-04-02T05:07:21.795Z,19.01
2023-04-02T05:07:51.785Z,19.14
2023-04-02T05:08:21.784Z,19.26
2023-04-02T05:08:51.788Z,19.3
2023-04-02T05:09:21.806Z,19.27
2023-04-02T05:09:51.787Z,19.3
2023-04-02T05:10:21.807Z,19.4
2023-04-02T05:10:51.784Z,19.59
2023-04-02T05:11:21.791Z,19.75
2023-04-02T05:11:51.795Z,19.95
2023-04-02T05:12:21.802Z,20.31
2023-04-02T05:12:51.792Z,20.76
2023-04-02T05:13:21.783Z,21.18
2023-04-02T05:13:51.789Z,21.5
2023-04-02T05:14:21.785Z,21.62
2023-04-02T05:14:51.792Z,21.8
2023-04-02T05:15:21.789Z,22.05
2023-04-02T05:15:51.873Z,22.45
2023-04-02T05:16:21.821Z,22.75
2023-04-02T05:16:51.790Z,23
2023-04-02T05:17:21.806Z,23.24
2023-04-02T05:17:51.808Z,23.19
2023-04-02T05:18:21.784Z,23.27
2023-04-02T05:18:51.785Z,23.31
2023-04-02T05:19:21.791Z,23.29
2023-04-02T05:19:51.793Z,23.15
2023-04-02T05:20:21.786Z,23.01
2023-04-02T05:20:51.789Z,22.84
2023-04-02T05:21:21.790Z,22.66
2023-04-02T05:21:51.790Z,22.35
2023-04-02T05:22:21.790Z,22.24
2023-04-02T05:22:51.792Z,22.29
2023-04-02T05:23:21.788Z,22.19
2023-04-02T05:23:51.794Z,22.2
2023-04-02T05:24:21.786Z,22.31
2023-04-02T05:24:51.789Z,22.56
2023-04-02T05:25:21.790Z,22.67
2023-04-02T05:25:51.800Z,22.56
2023-04-02T05:26:21.788Z,22.55
2023-04-02T05:26:51.792Z,22.7
2023-04-02T05:27:21.795Z,22.86
2023-04-02T05:27:51.793Z,23.15
2023-04-02T05:28:21.808Z,23.43
2023-04-02T05:28:51.812Z,23.76
2023-04-02T05:29:21.801Z,24.05
2023-04-02T05:29:51.793Z,24.27
2023-04-02T05:30:21.797Z,24.39
2023-04-02T05:30:51.789Z,24.5
2023-04-02T05:31:21.841Z,24.53
2023-04-02T05:31:51.796Z,24.28
2023-04-02T05:32:21.806Z,24.26
2023-04-02T05:32:51.858Z,24.4
2023-04-02T05:33:21.788Z,24.56
2023-04-02T05:33:51.791Z,24.52
2023-04-02T05:34:21.794Z,24.41
2023-04-02T05:34:51.794Z,24.24
2023-04-02T05:35:21.801Z,24.13
2023-04-02T05:35:51.816Z,24.24
2023-04-02T05:36:21.839Z,24.14
2023-04-02T05:36:51.795Z,24.16
2023-04-02T05:37:21.797Z,24.32
2023-04-02T05:37:51.792Z,24.36
2023-04-02T05:38:21.819Z,24.18
2023-04-02T05:38:51.797Z,24.4
2023-04-02T05:39:21.803Z,24.64
2023-04-02T05:39:51.805Z,24.77
2023-04-02T05:40:21.801Z,24.98
2023-04-02T05:40:51.792Z,25.32
2023-04-02T05:41:21.807Z,25.74
2023-04-02T05:41:51.796Z,26.16
2023-04-02T05:42:21.801Z,26.32
2023-04-02T05:42:51.801Z,26.37
2023-04-02T05:43:21.799Z,26.44
2023-04-02T05:43:51.801Z,26.45
2023-04-02T05:44:21.807Z,26.64
2023-04-02T05:44:51.800Z,26.91
2023-04-02T05:45:21.810Z,27.27
2023-04-02T05:45:51.802Z,27.24
2023-04-02T05:46:21.813Z,27.27
2023-04-02T05:46:51.857Z,27.52
2023-04-02T05:47:21.843Z,27.83
2023-04-02T05:47:51.874Z,28.26
2023-04-02T05:48:21.802Z,28.84
2023-04-02T05:48:51.819Z,29.45
2023-04-02T05:49:21.807Z,30.05
2023-04-02T05:49:51.828Z,30.6
2023-04-02T05:50:21.804Z,30.9
2023-04-02T05:50:51.798Z,31.08
2023-04-02T05:51:21.803Z,31.17
2023-04-02T05:51:51.807Z,31.21
2023-04-02T05:52:21.799Z,31.07
2023-04-02T05:52:51.821Z,30.59
2023-04-02T05:53:21.806Z,30.35
2023-04-02T05:53:51.808Z,30.27
2023-04-02T05:54:21.808Z,30.22
2023-04-02T05:54:51.802Z,30.43
2023-04-02T05:55:21.809Z,30.67
2023-04-02T05:55:51.806Z,30.93
2023-04-02T05:56:21.809Z,31.34
2023-04-02T05:56:51.814Z,31.94
2023-04-02T05:57:27.041Z,32.49
2023-04-02T05:58:35.517Z,33.49
2023-04-02T05:58:52.777Z,33.67
2023-04-02T05:59:21.802Z,33.97
2023-04-02T05:59:51.805Z,33.8
2023-04-02T06:00:21.814Z,33.89
2023-04-02T06:00:51.802Z,33.51
2023-04-02T06:01:21.814Z,32.95
2023-04-02T06:01:51.863Z,32.66
2023-04-02T06:02:21.833Z,32.08
2023-04-02T06:02:51.879Z,31.67
2023-04-02T06:03:21.891Z,31.39
2023-04-02T06:03:51.851Z,31.24
2023-04-02T06:04:21.804Z,30.9
2023-04-02T06:04:51.812Z,30.66
2023-04-02T06:05:21.805Z,30.32
2023-04-02T06:05:51.811Z,30.13
2023-04-02T06:06:21.807Z,30.11
2023-04-02T06:06:51.805Z,30.12
2023-04-02T06:07:21.805Z,30.2
2023-04-02T06:07:51.805Z,30.25
2023-04-02T06:08:21.808Z,30.08
2023-04-02T06:08:51.812Z,29.9
2023-04-02T06:09:21.808Z,29.71
2023-04-02T06:09:51.808Z,29.35
2023-04-02T06:10:24.200Z,29.06
2023-04-02T06:10:52.701Z,28.61
2023-04-02T06:11:21.811Z,28.39
2023-04-02T06:11:51.808Z,28.08
2023-04-02T06:12:21.808Z,27.94
2023-04-02T06:12:51.818Z,27.93
2023-04-02T06:13:21.806Z,27.99
2023-04-02T06:13:51.805Z,28.07
2023-04-02T06:14:21.804Z,28.31
2023-04-02T06:14:51.819Z,28.68
2023-04-02T06:15:21.808Z,28.89
2023-04-02T06:15:51.817Z,29.09
2023-04-02T06:16:22.013Z,29.51
2023-04-02T06:16:51.873Z,29.81
2023-04-02T06:17:21.814Z,30.03
2023-04-02T06:17:51.852Z,30.38
2023-04-02T06:18:21.809Z,30.63
2023-04-02T06:18:51.841Z,31.02
2023-04-02T06:19:21.815Z,31.47
2023-04-02T06:19:51.841Z,31.76
2023-04-02T06:20:21.810Z,31.9
2023-04-02T06:20:51.809Z,32.15
2023-04-02T06:21:21.821Z,32.41
2023-04-02T06:21:51.810Z,32.71
2023-04-02T06:22:21.811Z,32.91
2023-04-02T06:22:51.808Z,33.22
2023-04-02T06:23:21.813Z,33.66
2023-04-02T06:23:51.808Z,33.88
2023-04-02T06:24:21.812Z,33.68
2023-04-02T06:24:51.809Z,33.92
2023-04-02T06:25:21.823Z,34.05
2023-04-02T06:25:53.308Z,34.15
2023-04-02T06:26:21.815Z,34
2023-04-02T06:26:51.817Z,34.11
2023-04-02T06:27:21.812Z,34.61
2023-04-02T06:27:51.816Z,35.45
2023-04-02T06:28:21.819Z,35.95
2023-04-02T06:28:51.815Z,36.4
2023-04-02T06:29:21.819Z,36.92